Time;durP1;ratioP1;P1;durP2;ratioP2;P2;SDS_P1;SDS_P2;PMS_P1;PMS_P2;Temp;Humidity;BMP_temperature;BMP_pressure;BME280_temperature;BME280_humidity;BME280_pressure;Samples;Min_cycle;Max_cycle;Signal;HPM_P1;HPM_P2
2021/11/12 00:12:38;;;;;;;64.70;40.13;;;;;;;-0.03;85.08;101272.59;1434112;90;21635;-88
2021/11/12 00:15:06;;;;;;;46.13;30.97;;;;;;;-0.08;84.84;101268.01;1431653;90;21697;-87
2021/11/12 00:17:34;;;;;;;46.20;30.07;;;;;;;-0.13;85.12;101272.53;1433793;90;21546;-87
2021/11/12 00:20:02;;;;;;;51.83;32.20;;;;;;;-0.15;85.16;101269.13;1437365;89;22769;-87
2021/11/12 00:22:30;;;;;;;58.73;34.30;;;;;;;-0.15;84.84;101270.44;1435540;90;21832;-86
2021/11/12 00:25:01;;;;;;;52.43;29.60;;;;;;;-0.10;84.85;101268.97;1435401;90;23139;-87
2021/11/12 00:27:30;;;;;;;37.17;25.97;;;;;;;-0.09;84.75;101271.50;1440403;90;22139;-85
2021/11/12 00:30:05;;;;;;;44.53;28.57;;;;;;;-0.09;84.55;101271.50;1435921;90;22565;-87
2021/11/12 00:35:14;;;;;;;43.53;28.17;;;;;;;-0.11;84.63;101268.13;1432776;89;21799;-85
2021/11/12 00:40:43;;;;;;;45.87;27.90;;;;;;;-0.05;84.83;101266.59;1409513;92;23569;-85
2021/11/12 00:45:33;;;;;;;42.00;29.32;;;;;;;-0.02;84.99;101259.95;1411371;92;21688;-86
2021/11/12 00:48:18;;;;;;;46.23;27.37;;;;;;;0.01;84.62;101265.96;1409638;92;22369;-86
2021/11/12 00:55:43;;;;;;;44.77;26.90;;;;;;;-0.09;84.07;101258.94;1405286;92;21652;-86
2021/11/12 00:58:14;;;;;;;41.03;25.83;;;;;;;-0.12;83.91;101260.36;1406990;92;21646;-86
2021/11/12 01:00:44;;;;;;;41.75;28.35;;;;;;;-0.17;83.83;101263.16;1405565;92;22702;-85
2021/11/12 01:03:12;;;;;;;44.73;27.37;;;;;;;-0.19;83.89;101262.82;1406837;92;21691;-84
2021/11/12 01:05:39;;;;;;;45.20;28.27;;;;;;;-0.15;84.13;101262.62;1415579;92;21859;-84
2021/11/12 01:08:08;;;;;;;44.17;27.93;;;;;;;-0.14;84.07;101265.64;1410736;92;21719;-85
2021/11/12 01:10:36;;;;;;;50.00;29.67;;;;;;;-0.18;84.16;101253.64;1401010;90;22551;-85
2021/11/12 01:13:05;;;;;;;43.47;27.60;;;;;;;-0.18;83.85;101256.24;1446816;89;22684;-85
2021/11/12 01:15:32;;;;;;;42.17;27.57;;;;;;;-0.18;83.70;101246.30;1451579;89;21806;-87
2021/11/12 01:17:59;;;;;;;42.27;26.57;;;;;;;-0.16;83.73;101245.33;1446866;89;22124;-86
2021/11/12 01:20:26;;;;;;;37.03;24.67;;;;;;;-0.12;83.52;101246.89;1448109;89;21690;-86
2021/11/12 01:22:54;;;;;;;41.70;26.77;;;;;;;-0.07;83.43;101248.88;1445275;89;21610;-86
2021/11/12 01:25:22;;;;;;;41.70;27.10;;;;;;;-0.05;83.07;101241.86;1450808;89;21764;-86
2021/11/12 01:27:50;;;;;;;48.37;29.07;;;;;;;-0.06;82.77;101247.98;1435557;89;21602;-86
2021/11/12 01:30:19;;;;;;;47.97;26.67;;;;;;;-0.11;82.75;101242.56;1447980;89;21569;-86
2021/11/12 01:32:48;;;;;;;37.10;23.87;;;;;;;-0.11;82.99;101237.36;1448439;89;21624;-86
2021/11/12 01:35:18;;;;;;;37.33;24.53;;;;;;;-0.32;82.20;101239.01;1445695;89;21599;-86
2021/11/12 01:37:48;;;;;;;37.55;23.42;;;;;;;-0.62;81.10;101239.26;1446681;89;23130;-86
2021/11/12 01:40:25;;;;;;;33.43;23.80;;;;;;;-0.83;81.79;101247.84;1435829;89;21436;-86
2021/11/12 01:43:12;;;;;;;39.43;26.97;;;;;;;-0.97;83.60;101245.27;1433250;90;21598;-87
2021/11/12 01:51:10;;;;;;;44.75;29.70;;;;;;;-1.09;85.41;101253.50;1436455;90;22508;-86
2021/11/12 01:53:40;;;;;;;54.00;31.62;;;;;;;-1.09;86.08;101263.02;1434805;90;21606;-87
2021/11/12 01:59:07;;;;;;;45.60;28.65;;;;;;;-1.03;87.26;101250.69;1434852;90;21384;-87
2021/11/12 02:01:23;;;;;;;42.50;27.22;;;;;;;-0.98;87.02;101244.89;1438964;90;21592;-88
2021/11/12 02:03:53;;;;;;;45.75;27.32;;;;;;;-0.94;87.51;101247.77;1432036;90;22989;-88
2021/11/12 02:06:23;;;;;;;36.05;23.98;;;;;;;-0.89;87.11;101245.44;1438434;90;21566;-88
2021/11/12 02:08:51;;;;;;;35.92;24.35;;;;;;;-0.86;87.39;101246.20;1437211;90;23836;-88
2021/11/12 02:11:20;;;;;;;33.70;23.10;;;;;;;-0.79;87.11;101241.62;1435208;90;21512;-88
2021/11/12 02:13:49;;;;;;;35.85;25.15;;;;;;;-0.77;86.91;101241.13;1440454;90;21570;-87
2021/11/12 02:16:26;;;;;;;33.50;21.70;;;;;;;-0.74;87.00;101237.11;1441424;90;21876;-86
2021/11/12 02:18:47;;;;;;;37.30;23.67;;;;;;;-0.73;86.75;101244.00;1438744;90;21613;-85
2021/11/12 02:26:26;;;;;;;39.70;24.12;;;;;;;-0.74;85.92;101235.81;1435528;90;21629;-86
2021/11/12 02:28:56;;;;;;;38.00;23.98;;;;;;;-0.68;86.40;101236.89;1435122;90;21519;-86
2021/11/12 02:31:26;;;;;;;38.05;26.20;;;;;;;-0.72;86.48;101232.69;1437058;90;22529;-86
2021/11/12 02:33:56;;;;;;;34.85;23.15;;;;;;;-0.79;85.87;101229.47;1438687;90;21587;-86
2021/11/12 02:36:24;;;;;;;32.63;21.30;;;;;;;-0.84;85.96;101239.63;1437843;90;21563;-86
2021/11/12 02:38:54;;;;;;;30.82;22.25;;;;;;;-0.87;85.85;101239.74;1431183;90;21563;-86
2021/11/12 02:41:24;;;;;;;28.98;19.57;;;;;;;-0.94;85.56;101226.13;1440046;90;21600;-86
2021/11/12 02:43:52;;;;;;;32.13;22.70;;;;;;;-1.03;86.22;101229.91;1434744;90;21393;-86
2021/11/12 02:46:25;;;;;;;33.28;23.75;;;;;;;-1.07;86.08;101237.39;1425706;90;22317;-86
2021/11/12 02:48:54;;;;;;;36.85;24.25;;;;;;;-1.04;86.15;101222.98;1437273;89;22464;-86
2021/11/12 02:51:28;;;;;;;34.03;23.32;;;;;;;-1.10;85.82;101223.21;1436289;90;22229;-86
2021/11/12 02:53:58;;;;;;;31.10;22.32;;;;;;;-1.14;86.57;101227.67;1429799;90;21519;-86
2021/11/12 02:56:28;;;;;;;34.83;23.45;;;;;;;-1.25;86.21;101232.39;1431212;90;21566;-86
2021/11/12 02:59:06;;;;;;;34.53;23.73;;;;;;;-1.26;86.31;101233.75;1438434;90;21386;-85
2021/11/12 03:01:37;;;;;;;36.38;24.18;;;;;;;-1.25;86.51;101235.44;1437539;90;21377;-86
2021/11/12 03:04:06;;;;;;;31.97;22.95;;;;;;;-1.28;86.75;101230.35;1441256;90;23080;-86
2021/11/12 03:06:35;;;;;;;33.58;24.07;;;;;;;-1.28;87.04;101234.25;1437468;90;21555;-86
2021/11/12 03:09:07;;;;;;;39.48;24.90;;;;;;;-1.31;86.56;101233.05;1432752;90;21592;-86
2021/11/12 03:11:36;;;;;;;37.17;25.65;;;;;;;-1.29;86.90;101237.76;1431418;90;21564;-86
2021/11/12 03:14:08;;;;;;;35.50;23.25;;;;;;;-1.26;87.00;101238.95;1434371;90;21593;-87
2021/11/12 03:16:37;;;;;;;33.42;22.02;;;;;;;-1.24;86.80;101231.48;1432418;90;21570;-87
2021/11/12 03:19:08;;;;;;;39.80;26.27;;;;;;;-1.27;86.94;101237.23;1438801;90;21768;-86
2021/11/12 03:21:39;;;;;;;35.63;24.90;;;;;;;-1.22;87.50;101234.88;1422581;91;21652;-86
2021/11/12 03:24:25;;;;;;;;;;;;;;;-1.14;87.84;101233.33;1442676;90;21504;-86
2021/11/12 03:27:04;;;;;;;41.30;25.80;;;;;;;-1.09;87.42;101224.93;1436248;89;20431;-86
2021/11/12 03:29:38;;;;;;;38.48;26.30;;;;;;;-1.03;87.48;101224.70;1430598;91;21577;-87
2021/11/12 03:56:47;;;;;;;34.35;22.55;;;;;;;-1.30;86.30;101196.63;1431676;91;22429;-88
2021/11/12 04:04:32;;;;;;;36.75;25.05;;;;;;;-1.28;86.79;101190.09;1437028;91;21471;-85
2021/11/12 04:18:09;;;;;;;34.80;23.42;;;;;;;-1.08;86.93;101195.44;1441775;91;21888;-87
2021/11/12 05:50:42;;;;;;;40.23;25.27;;;;;;;-1.72;85.19;101223.60;1392925;90;21413;-87
2021/11/12 05:55:29;;;;;;;33.25;22.52;;;;;;;-1.69;85.08;101223.50;1442077;90;22367;-87
2021/11/12 05:57:59;;;;;;;31.50;23.15;;;;;;;-1.70;85.03;101224.38;1444582;90;21333;-88
2021/11/12 06:00:27;;;;;;;34.98;23.18;;;;;;;-1.73;85.46;101224.02;1431989;90;21524;-88
2021/11/12 06:02:55;;;;;;;30.90;23.73;;;;;;;-1.66;85.62;101227.29;1451251;90;21295;-88
2021/11/12 06:05:22;;;;;;;34.65;23.22;;;;;;;-1.63;85.63;101229.33;1442948;90;21331;-88
2021/11/12 06:07:49;;;;;;;30.92;21.65;;;;;;;-1.60;85.53;101221.89;1445297;90;21495;-88
2021/11/12 06:10:17;;;;;;;31.35;22.93;;;;;;;-1.52;85.47;101222.95;1436555;90;21437;-89
2021/11/12 06:12:48;;;;;;;35.70;23.42;;;;;;;-1.47;85.25;101228.81;1443034;90;21340;-90
2021/11/12 06:15:16;;;;;;;37.63;24.20;;;;;;;-1.44;85.01;101233.91;1446963;90;21450;-91
2021/11/12 06:17:44;;;;;;;37.78;25.45;;;;;;;-1.46;84.82;101239.16;1445284;90;21384;-88
2021/11/12 06:20:12;;;;;;;34.27;21.12;;;;;;;-1.42;84.89;101230.81;1439934;90;21339;-87
2021/11/12 06:22:39;;;;;;;34.65;23.87;;;;;;;-1.34;85.22;101242.25;1441320;90;21340;-87
2021/11/12 06:25:07;;;;;;;34.45;23.85;;;;;;;-1.29;85.07;101238.59;1445010;90;23488;-87
2021/11/12 06:27:34;;;;;;;37.60;25.17;;;;;;;-1.29;84.79;101239.90;1443096;90;21258;-86
2021/11/12 06:30:05;;;;;;;38.00;25.32;;;;;;;-1.26;84.73;101242.39;1443298;90;21362;-87
2021/11/12 06:32:32;;;;;;;36.93;22.52;;;;;;;-1.22;84.92;101243.97;1439378;90;21591;-86
2021/11/12 06:35:00;;;;;;;36.60;23.07;;;;;;;-1.26;85.26;101248.04;1443923;90;21429;-86
2021/11/12 06:37:27;;;;;;;34.63;24.87;;;;;;;-1.22;85.23;101244.42;1446524;90;22302;-87
2021/11/12 06:39:55;;;;;;;35.78;24.02;;;;;;;-1.19;85.62;101241.72;1444868;90;21517;-85
2021/11/12 06:42:25;;;;;;;72.45;27.58;;;;;;;-1.17;85.84;101241.23;1442773;90;21672;-85
2021/11/12 06:49:17;;;;;;;99.80;33.33;;;;;;;-1.16;86.07;101246.35;1448597;90;21422;-84
2021/11/12 06:50:13;;;;;;;36.20;25.60;;;;;;;-0.97;86.35;101242.67;1443368;90;22256;-84
2021/11/12 06:52:44;;;;;;;40.30;26.37;;;;;;;-0.87;86.53;101248.38;1450432;89;23063;-84
2021/11/12 06:55:13;;;;;;;42.15;26.93;;;;;;;-0.76;86.58;101244.11;1451207;90;21376;-83
2021/11/12 06:57:43;;;;;;;49.83;28.30;;;;;;;-0.69;86.84;101246.90;1448285;90;22632;-84
2021/11/12 07:00:17;;;;;;;69.90;31.10;;;;;;;-0.66;87.22;101254.59;1454061;90;22243;-84
2021/11/12 07:02:47;;;;;;;69.93;27.07;;;;;;;-0.57;87.19;101256.84;1438323;90;22590;-83
2021/11/12 07:05:16;;;;;;;60.10;29.73;;;;;;;-0.52;88.06;101254.05;1448047;90;21498;-86
2021/11/12 07:07:45;;;;;;;61.37;27.17;;;;;;;-0.39;87.96;101252.71;1446167;90;21532;-84
2021/11/12 07:10:13;;;;;;;51.47;27.73;;;;;;;-0.32;88.59;101252.86;1450218;90;22404;-84
2021/11/12 07:12:41;;;;;;;65.43;29.57;;;;;;;-0.25;88.90;101246.99;1448556;90;22387;-84
2021/11/12 07:15:09;;;;;;;47.23;30.40;;;;;;;-0.17;89.28;101246.67;1447615;90;22010;-85
2021/11/12 07:17:37;;;;;;;50.70;30.43;;;;;;;-0.02;89.04;101256.52;1444403;90;21643;-85
2021/11/12 07:20:07;;;;;;;46.50;30.27;;;;;;;0.10;89.16;101252.12;1444337;90;22381;-85
2021/11/12 07:22:34;;;;;;;47.73;31.90;;;;;;;0.27;88.91;101250.16;1444047;90;21581;-85
2021/11/12 07:25:03;;;;;;;40.37;29.80;;;;;;;0.42;88.60;101248.22;1442134;90;21704;-86
2021/11/12 07:27:30;;;;;;;45.50;31.03;;;;;;;0.56;88.61;101245.52;1454011;90;21669;-86
2021/11/12 07:29:57;;;;;;;49.23;31.43;;;;;;;0.65;88.44;101251.17;1442714;90;21595;-87
2021/11/12 07:32:25;;;;;;;51.83;32.93;;;;;;;0.72;88.22;101253.09;1451882;89;21622;-86
2021/11/12 07:34:53;;;;;;;43.47;30.50;;;;;;;0.81;88.29;101253.16;1447479;90;22455;-87
2021/11/12 07:37:22;;;;;;;43.17;30.70;;;;;;;0.87;88.31;101251.59;1444351;90;21604;-85
2021/11/12 07:39:51;;;;;;;54.33;33.97;;;;;;;0.96;88.43;101252.96;1435029;90;21476;-85
2021/11/12 07:42:27;;;;;;;45.23;29.03;;;;;;;1.06;88.44;101247.26;1445203;90;21607;-85
2021/11/12 07:44:59;;;;;;;;;;;;;;;1.17;88.30;101248.10;1455139;88;21573;-86
2021/11/12 07:47:22;;;;;;;48.20;28.65;;;;;;;;;;1444556;88;20773;-85
2021/11/12 07:49:54;;;;;;;47.07;29.10;;;;;;;1.41;88.52;101242.70;1447315;90;22367;-86
2021/11/12 07:52:28;;;;;;;45.27;27.83;;;;;;;1.38;88.61;101246.75;1456075;90;21510;-85
2021/11/12 07:54:58;;;;;;;46.67;31.60;;;;;;;1.44;89.16;101247.78;1443634;90;21443;-85
2021/11/12 07:57:25;;;;;;;42.57;29.90;;;;;;;1.57;89.40;101234.58;1447063;90;21513;-86
2021/11/12 07:59:53;;;;;;;46.47;31.13;;;;;;;1.61;89.86;101237.42;1440595;90;21675;-85
2021/11/12 08:02:20;;;;;;;47.00;33.73;;;;;;;1.75;89.87;101238.94;1448419;90;21566;-86
2021/11/12 08:04:50;;;;;;;45.10;30.77;;;;;;;1.95;89.69;101235.86;1446157;90;21667;-85
2021/11/12 08:07:18;;;;;;;58.80;38.60;;;;;;;2.05;89.47;101233.68;1451568;88;21680;-85
2021/11/12 08:12:35;;;;;;;46.20;30.43;;;;;;;2.47;89.02;101242.05;1443610;90;22236;-86
2021/11/12 08:15:33;;;;;;;50.30;33.90;;;;;;;2.51;88.25;101236.20;1453994;89;21896;-85
2021/11/12 08:22:40;;;;;;;56.97;35.23;;;;;;;2.99;88.33;101242.93;1458041;89;21748;-87
2021/11/12 08:25:19;;;;;;;48.07;31.33;;;;;;;3.10;87.52;101246.68;1467400;88;22075;-86
2021/11/12 08:33:11;;;;;;;54.93;34.73;;;;;;;3.46;87.08;101243.07;1449047;90;22082;-83
2021/11/12 08:40:54;;;;;;;60.57;39.63;;;;;;;4.24;87.45;101226.13;1440522;89;22041;-83
2021/11/12 08:43:17;;;;;;;54.20;36.70;;;;;;;4.24;87.45;101226.13;1449192;90;21434;-85
2021/11/12 08:46:00;;;;;;;51.13;36.27;;;;;;;4.45;85.41;101230.13;1447212;88;24315;-86
2021/11/12 08:48:17;;;;;;;42.00;30.50;;;;;;;4.67;84.65;101224.48;1440793;88;21369;-85
2021/11/12 08:50:43;;;;;;;57.93;41.43;;;;;;;4.65;81.65;101221.57;1437524;89;21563;-85
2021/11/12 08:53:13;;;;;;;62.23;42.37;;;;;;;4.88;83.36;101218.42;1445106;90;22190;-85
2021/11/12 08:55:43;;;;;;;59.63;36.43;;;;;;;5.15;83.89;101217.69;1449411;89;21413;-85
2021/11/12 08:58:12;;;;;;;57.13;38.75;;;;;;;5.30;80.96;101209.38;1443500;90;21347;-86
2021/11/12 09:00:42;;;;;;;50.53;32.20;;;;;;;5.31;79.45;101205.33;1442590;90;22308;-86
2021/11/12 09:03:11;;;;;;;53.33;37.27;;;;;;;5.38;78.46;101201.84;1437064;90;21391;-86
2021/11/12 09:05:39;;;;;;;61.17;35.73;;;;;;;5.57;78.92;101196.30;1447829;90;21317;-83
2021/11/12 09:08:06;;;;;;;56.67;38.50;;;;;;;5.78;79.52;101206.77;1446785;90;21385;-83
2021/11/12 09:10:33;;;;;;;44.10;29.33;;;;;;;6.01;77.87;101198.77;1442963;90;21385;-83
2021/11/12 09:13:20;;;;;;;75.17;45.67;;;;;;;6.33;76.45;101206.33;1432877;90;22417;-83
2021/11/12 09:15:52;;;;;;;45.40;31.57;;;;;;;7.04;75.19;101206.34;1445918;90;21392;-83
2021/11/12 09:18:17;;;;;;;56.37;34.73;;;;;;;8.13;72.20;101204.70;1446577;88;21406;-83
2021/11/12 09:20:45;;;;;;;46.80;30.77;;;;;;;8.83;66.08;101200.38;1435469;89;22308;-83
2021/11/12 09:23:13;;;;;;;45.13;30.93;;;;;;;9.47;63.67;101196.70;1438476;90;22308;-85
2021/11/12 09:25:40;;;;;;;41.80;29.13;;;;;;;9.76;64.63;101198.83;1440457;90;21317;-85
2021/11/12 09:28:07;;;;;;;148.07;92.27;;;;;;;9.87;60.66;101196.16;1447385;90;21715;-82
2021/11/12 09:30:35;;;;;;;47.27;30.87;;;;;;;10.58;61.77;101191.67;1447871;90;21302;-81
2021/11/12 09:33:05;;;;;;;89.90;60.27;;;;;;;11.11;60.02;101191.58;1435673;90;21848;-81
2021/11/12 09:35:34;;;;;;;43.90;32.50;;;;;;;11.53;61.09;101180.84;1452269;90;22271;-82
2021/11/12 09:38:01;;;;;;;49.27;35.37;;;;;;;12.06;61.63;101172.59;1445513;90;21435;-82
2021/11/12 09:40:29;;;;;;;59.50;41.27;;;;;;;12.51;59.76;101172.00;1442259;90;21795;-83
2021/11/12 09:42:57;;;;;;;41.00;31.57;;;;;;;12.30;52.49;101171.33;1437217;90;22521;-82
2021/11/12 09:45:24;;;;;;;37.80;28.13;;;;;;;12.80;57.34;101167.11;1427478;90;22401;-82
2021/11/12 09:47:52;;;;;;;42.83;33.23;;;;;;;12.75;52.17;101161.42;1446518;90;21404;-82
2021/11/12 09:50:25;;;;;;;34.57;27.27;;;;;;;12.64;50.16;101159.27;1431603;91;21371;-83
2021/11/12 09:52:55;;;;;;;37.20;29.07;;;;;;;12.71;52.52;101155.53;1411217;92;21577;-83
2021/11/12 09:55:24;;;;;;;48.23;35.47;;;;;;;12.89;55.40;101151.66;1401767;92;21497;-83
2021/11/12 09:57:53;;;;;;;37.90;27.03;;;;;;;13.14;51.44;101144.83;1407117;92;21583;-83
2021/11/12 10:00:25;;;;;;;58.60;44.40;;;;;;;13.04;53.08;101136.91;1409200;93;21468;-83
2021/11/12 10:02:54;;;;;;;46.63;36.50;;;;;;;13.45;53.89;101126.80;1402037;93;21836;-83
2021/11/12 10:05:45;;;;;;;31.33;25.17;;;;;;;13.03;48.47;101127.74;1411767;90;21903;-83
2021/11/12 10:08:27;;;;;;;34.20;26.90;;;;;;;13.56;51.60;101115.62;1401756;92;21429;-82
2021/11/12 10:11:05;;;;;;;48.50;25.00;;;;;;;13.88;52.16;101117.26;1404192;93;21372;-82
2021/11/12 10:13:39;;;;;;;52.55;29.75;;;;;;;13.79;47.70;101114.19;1415530;91;21460;-83
2021/11/12 10:19:13;;;;;;;42.17;28.47;;;;;;;13.49;49.05;101108.24;1405416;92;21576;-82
2021/11/12 10:21:45;;;;;;;68.87;46.80;;;;;;;13.16;49.09;101106.16;1409116;92;21466;-82
2021/11/12 10:24:22;;;;;;;41.83;30.00;;;;;;;13.23;52.25;101107.22;1406867;92;21950;-81
2021/11/12 10:26:56;;;;;;;88.30;57.20;;;;;;;13.69;51.94;101102.77;1421630;92;21573;-82
2021/11/12 10:29:31;;;;;;;39.17;25.93;;;;;;;13.70;49.52;101101.80;1407772;92;21525;-82
2021/11/12 10:32:07;;;;;;;36.83;28.27;;;;;;;13.52;49.70;101105.75;1402726;93;21617;-84
2021/11/12 10:34:38;;;;;;;161.73;103.22;;;;;;;13.77;51.63;101097.03;1401877;93;21457;-83
2021/11/12 10:37:23;;;;;;;36.60;26.52;;;;;;;13.77;50.94;101099.69;1406061;92;21584;-82
2021/11/12 10:40:01;;;;;;;52.65;36.85;;;;;;;13.51;48.44;101095.61;1437090;94;21482;-84
2021/11/12 10:42:31;;;;;;;39.83;27.07;;;;;;;13.47;51.33;101090.27;1362871;93;21463;-83
2021/11/12 10:45:04;;;;;;;34.00;25.52;;;;;;;13.85;52.43;101090.13;1336717;94;21365;-83
2021/11/12 10:47:37;;;;;;;31.82;24.60;;;;;;;13.78;50.08;101087.22;1448941;93;21298;-83
2021/11/12 10:50:09;;;;;;;33.70;24.98;;;;;;;13.56;48.42;101075.23;1487046;92;21321;-82
2021/11/12 10:52:38;;;;;;;32.85;24.72;;;;;;;13.59;48.84;101070.94;1478076;93;21367;-82
2021/11/12 10:55:17;;;;;;;46.37;33.20;;;;;;;13.51;48.07;101073.50;1407676;92;21404;-81
2021/11/12 10:58:00;;;;;;;35.08;27.65;;;;;;;13.67;49.83;101074.17;1369225;93;21291;-81
2021/11/12 11:00:33;;;;;;;50.88;35.58;;;;;;;13.89;50.11;101068.86;1482229;93;21320;-81
2021/11/12 11:03:09;;;;;;;64.07;44.23;;;;;;;14.09;49.99;101065.53;1481274;93;21313;-81
2021/11/12 11:05:46;;;;;;;42.70;31.57;;;;;;;14.33;49.42;101061.72;1448199;93;23619;-81
2021/11/12 11:08:30;;;;;;;151.82;105.25;;;;;;;14.47;50.42;101056.79;1482031;93;21269;-81
2021/11/12 11:11:04;;;;;;;43.38;29.12;;;;;;;14.67;49.29;101051.60;1410001;92;21497;-86
2021/11/12 11:13:36;;;;;;;35.83;28.12;;;;;;;14.84;49.52;101042.69;1408129;92;21670;-85
2021/11/12 11:16:08;;;;;;;46.15;32.40;;;;;;;15.13;50.06;101038.79;1408987;93;22445;-84
2021/11/12 11:18:43;;;;;;;41.60;30.75;;;;;;;15.11;48.28;101032.30;1408925;93;21512;-84
2021/11/12 11:24:04;;;;;;;31.45;25.10;;;;;;;15.24;46.62;101027.82;1486582;93;21275;-85
2021/11/12 11:26:44;;;;;;;36.15;26.85;;;;;;;15.05;44.81;101025.46;1421892;91;21445;-85
2021/11/12 11:29:22;;;;;;;113.92;71.75;;;;;;;15.14;47.49;101024.98;1492886;90;22178;-85
2021/11/12 11:31:54;;;;;;;62.53;42.38;;;;;;;15.19;46.56;101022.17;1429210;92;21423;-85
2021/11/12 11:34:24;;;;;;;50.20;39.88;;;;;;;15.52;46.43;101024.88;1434215;92;21370;-85
2021/11/12 11:36:56;;;;;;;41.25;31.48;;;;;;;15.85;46.63;101023.06;1422121;92;21635;-84
2021/11/12 11:39:24;;;;;;;161.43;117.17;;;;;;;16.07;44.77;101016.72;1346787;93;21318;-84
2021/11/12 11:41:52;;;;;;;35.40;27.52;;;;;;;16.31;45.23;101008.64;1426079;92;21525;-85
2021/11/12 11:44:20;;;;;;;87.02;58.05;;;;;;;15.99;42.31;101001.03;1403745;91;21548;-82
2021/11/12 11:46:52;;;;;;;70.40;54.00;;;;;;;15.99;42.31;101001.03;1407048;91;21541;-83
2021/11/12 11:49:23;;;;;;;38.00;29.32;;;;;;;16.18;44.09;101009.19;1396398;94;21361;-81
2021/11/12 11:52:04;;;;;;;30.77;23.40;;;;;;;16.10;43.80;101009.20;1415234;91;21496;-82
2021/11/12 11:54:47;;;;;;;41.80;30.48;;;;;;;16.14;44.21;101009.21;1432023;90;21428;-81
2021/11/12 11:57:19;;;;;;;34.45;23.15;;;;;;;16.09;42.07;100996.86;1474279;90;22263;-82
2021/11/12 11:59:47;;;;;;;63.45;47.50;;;;;;;16.46;44.27;100998.94;1512401;90;21179;-85
2021/11/12 12:06:19;;;;;;;29.70;22.60;;;;;;;16.98;43.30;100994.91;1462687;88;21778;-84
2021/11/12 12:09:10;;;;;;;22.70;18.85;;;;;;;17.19;39.10;100992.10;1362334;91;21408;-84
2021/11/12 12:11:53;;;;;;;74.72;26.20;;;;;;;16.99;40.69;100994.39;1426423;91;21400;-84
2021/11/12 12:14:32;;;;;;;59.75;46.00;;;;;;;17.19;42.27;100994.78;1429626;91;21341;-84
2021/11/12 12:17:15;;;;;;;25.88;20.60;;;;;;;17.41;40.07;100989.95;1430273;91;21408;-84
2021/11/12 12:20:05;;;;;;;26.60;19.12;;;;;;;17.52;41.35;100987.33;1422634;91;21570;-84
2021/11/12 13:23:28;;;;;;;25.40;19.77;;;;;;;15.79;42.10;100949.02;1438062;90;21600;-85
2021/11/12 13:25:53;;;;;;;27.42;20.52;;;;;;;15.45;43.18;100948.69;1430952;90;22331;-86
2021/11/12 13:28:25;;;;;;;25.40;21.12;;;;;;;15.55;42.92;100949.84;1428670;91;22524;-86
2021/11/12 13:31:08;;;;;;;28.02;21.05;;;;;;;15.33;42.96;100949.52;1423895;91;21349;-86
2021/11/12 13:33:41;;;;;;;27.42;20.55;;;;;;;15.31;43.75;100956.02;1426025;91;21401;-86
2021/11/12 13:36:28;;;;;;;30.32;20.32;;;;;;;15.13;43.70;100953.47;1424603;91;21505;-86
2021/11/12 13:39:17;;;;;;;31.02;23.07;;;;;;;14.85;44.00;100952.44;1427151;91;21385;-86
2021/11/12 13:41:44;;;;;;;27.58;22.10;;;;;;;14.74;44.57;100954.07;1422749;90;21438;-85
2021/11/12 13:44:20;;;;;;;33.88;23.25;;;;;;;14.37;44.62;100957.05;1427737;91;21371;-85
2021/11/12 13:46:58;;;;;;;34.33;23.30;;;;;;;13.92;45.89;100953.63;1425587;91;21511;-85
2021/11/12 13:49:43;;;;;;;32.57;23.10;;;;;;;13.48;47.25;100958.14;1433333;91;21445;-85
2021/11/12 13:52:17;;;;;;;31.90;22.03;;;;;;;13.29;47.85;100956.00;1424176;91;21313;-85
2021/11/12 13:54:56;;;;;;;31.80;23.07;;;;;;;12.82;49.01;100953.98;1421432;91;21475;-85
2021/11/12 13:57:28;;;;;;;30.10;22.90;;;;;;;12.60;49.82;100953.42;1426360;91;21408;-85
2021/11/12 14:00:01;;;;;;;35.93;22.57;;;;;;;12.42;50.97;100957.83;1424610;90;21438;-85
2021/11/12 14:02:31;;;;;;;32.97;22.93;;;;;;;12.23;51.05;100952.13;1427529;90;21394;-85
2021/11/12 14:05:11;;;;;;;36.30;22.70;;;;;;;11.92;52.14;100954.17;1420959;91;21438;-85
2021/11/12 14:07:39;;;;;;;31.05;23.62;;;;;;;11.74;51.81;100956.20;1437165;90;21476;-85
2021/11/12 14:10:12;;;;;;;29.80;21.83;;;;;;;11.52;52.52;100949.88;1419940;91;21313;-85
2021/11/12 14:12:58;;;;;;;32.77;23.37;;;;;;;11.41;52.89;100953.98;1430269;91;21403;-84
2021/11/12 14:15:29;;;;;;;33.73;22.53;;;;;;;11.22;53.92;100954.81;1422204;90;21489;-85
2021/11/12 14:26:55;;;;;;;32.27;22.30;;;;;;;10.56;55.24;100952.28;1429946;90;21372;-85
2021/11/12 14:41:28;;;;;;;77.70;40.07;;;;;;;9.79;57.83;100953.21;1426732;91;21461;-85
2021/11/12 14:46:35;;;;;;;54.67;27.87;;;;;;;9.42;57.93;100947.88;1431766;90;21359;-85
2021/11/12 14:49:18;;;;;;;61.63;26.80;;;;;;;9.28;58.26;100943.38;1422943;91;21394;-85
2021/11/12 14:52:03;;;;;;;43.50;25.70;;;;;;;9.16;58.46;100946.06;1429745;90;21424;-85
2021/11/12 14:54:45;;;;;;;43.27;26.07;;;;;;;9.10;58.81;100951.02;1423644;91;21386;-85
2021/11/12 15:00:00;;;;;;;87.85;44.18;;;;;;;8.99;59.13;100948.75;1411174;91;21401;-85
2021/11/12 15:02:28;;;;;;;78.23;45.73;;;;;;;8.91;59.72;100946.38;1426907;91;21342;-85
2021/11/12 15:04:56;;;;;;;66.63;40.57;;;;;;;8.77;60.03;100948.80;1428089;90;21386;-85
2021/11/12 15:07:31;;;;;;;76.33;43.60;;;;;;;8.62;60.56;100946.09;1425655;91;21342;-85
2021/11/12 15:09:54;;;;;;;100.00;49.80;;;;;;;8.47;61.02;100945.50;1421504;91;23507;-85
2021/11/12 15:12:22;;;;;;;106.10;58.93;;;;;;;8.36;61.35;100943.67;1426556;91;22247;-85
2021/11/12 15:14:57;;;;;;;96.87;52.13;;;;;;;8.26;61.79;100938.78;1423431;90;22230;-85
2021/11/12 15:17:24;;;;;;;95.43;54.33;;;;;;;8.12;62.50;100942.48;1427882;90;21416;-85
2021/11/12 15:19:52;;;;;;;113.43;60.07;;;;;;;7.97;62.95;100939.24;1428678;91;21468;-85
2021/11/12 15:27:31;;;;;;;90.63;51.90;;;;;;;7.60;64.26;100951.27;1409724;91;22273;-84
2021/11/12 15:32:34;;;;;;;50.20;30.77;;;;;;;7.28;65.56;100950.17;1431471;91;21556;-86
2021/11/12 15:35:16;;;;;;;50.30;27.63;;;;;;;7.09;66.76;100949.39;1433052;89;21815;-85
2021/11/12 15:37:53;;;;;;;47.60;27.20;;;;;;;6.90;67.45;100948.56;1413135;90;21430;-86
2021/11/12 15:40:40;;;;;;;68.10;34.63;;;;;;;6.74;67.23;100947.53;1425235;91;22387;-86
2021/11/12 15:45:49;;;;;;;47.53;27.43;;;;;;;6.67;67.16;100953.68;1410909;90;22798;-85
2021/11/12 15:48:11;;;;;;;47.23;26.63;;;;;;;6.63;67.55;100949.60;1430509;91;21536;-85
2021/11/12 15:53:43;;;;;;;51.63;28.43;;;;;;;6.56;67.82;100958.89;1436254;89;23301;-84
2021/11/12 16:23:13;;;;;;;57.30;27.02;;;;;;;5.47;71.85;100979.44;1419737;91;21385;-82
2021/11/12 16:25:25;;;;;;;50.30;27.77;;;;;;;5.42;71.63;100975.80;1425250;91;22319;-83
2021/11/12 16:28:01;;;;;;;54.13;26.10;;;;;;;5.43;71.50;100980.09;1361414;91;21408;-82
2021/11/12 16:30:32;;;;;;;49.53;27.10;;;;;;;5.39;72.08;100978.63;1431187;91;22359;-86
2021/11/12 16:33:11;;;;;;;44.17;29.47;;;;;;;5.14;74.19;100970.66;1419939;91;21487;-83
2021/11/12 16:35:38;;;;;;;43.13;26.47;;;;;;;5.14;74.19;100970.66;1407758;91;22371;-86
2021/11/12 16:38:18;;;;;;;57.07;27.70;;;;;;;5.07;73.82;100972.02;1410731;91;22214;-87
2021/11/12 16:40:42;;;;;;;58.83;29.00;;;;;;;5.02;73.34;100975.40;1430795;91;22242;-89
2021/11/12 16:48:38;;;;;;;50.33;30.50;;;;;;;4.97;73.03;100980.45;1428479;90;22189;-86
2021/11/12 16:51:34;;;;;;;50.03;26.87;;;;;;;4.96;72.63;100987.96;1433243;91;22615;-87
2021/11/12 17:00:05;;;;;;;52.60;29.43;;;;;;;4.92;72.68;100989.11;1427880;91;23017;-85
2021/11/12 17:01:55;;;;;;;50.07;29.30;;;;;;;4.96;72.81;100987.96;1418189;91;22138;-85
2021/11/12 17:04:16;;;;;;;49.63;29.03;;;;;;;4.93;72.70;100987.33;1430678;91;23106;-85
2021/11/12 17:12:05;;;;;;;45.87;30.00;;;;;;;4.74;72.55;100981.08;1433382;91;22071;-82
2021/11/12 17:47:24;;;;;;;60.40;33.30;;;;;;;3.95;73.11;100986.34;1392478;91;22088;-83
2021/11/12 18:03:35;;;;;;;90.30;52.07;;;;;;;3.59;74.78;100971.02;1448543;90;22042;-83